Yvonne K. — PBLX — position and weather

sailwx.info

Track history (hours):
 
Tides and Currents Weather Stations Pressure Air Temp Water Temp Dewpoint Dewpoint Depression Visibility Wind Speed Wind Dir Waves Ship Positions

Yvonne K.

Last reported at 2014-Sep-17 22:06 UTC. Time now 2014-Sep-19 17:54 UTC.
Position N 35°59' W 005°15'.

Length 90 m; draft 5.2 m.

Type: Cargo ship. MMSI: 244948000.

Date/timePositionNaut miles runAvg speedWind from/ knotsBaromVisibWave heightAir tempDewpointWater temp
2014-Sep-17 22:06N 35°59' W 005°15'911.5
2014-Sep-17 21:18N 35°57' W 005°26'  
2014-Sep-13 09:33N 47°27' W 006°56'9 9.3
2014-Sep-13 08:33N 47°35' W 006°49'9 9.4
2014-Sep-13 07:33N 47°43' W 006°42'8 8.2
2014-Sep-13 06:33N 47°50' W 006°37'15 7.6
2014-Sep-13 04:33N 48°04' W 006°26'15 7.6
2014-Sep-13 02:33N 48°17' W 006°15'296 9.0
2014-Sep-11 17:33N 50°37' E 000°26'1110.9
2014-Sep-11 16:33N 50°42' E 000°42'1010.0
2014-Sep-11 15:32N 50°48' E 000°55'26 7.7
2014-Sep-11 12:13N 51°04' E 001°27'6 9.1
2014-Sep-11 11:33N 51°08' E 001°34'1110.7
2014-Sep-11 10:33N 51°15' E 001°47'1212.2
2014-Sep-11 09:33N 51°25' E 001°58'1211.9
2014-Sep-11 08:33N 51°34' E 002°11'52 8.4
2014-Sep-11 02:23N 52°02' E 003°21'17 8.5
2014-Sep-11 00:25N 52°03' E 003°48'8 9.3
2014-Sep-10 23:33N 52°01' E 004°00'5 4.9
2014-Sep-10 22:28N 51°58' E 004°07'0 0.0
2014-Sep-10 21:31N 51°58' E 004°07'0 0.0
2014-Sep-10 20:31N 51°58' E 004°07'0 0.0
2014-Sep-10 19:31N 51°58' E 004°07'0 0.0
2014-Sep-10 18:22N 51°58' E 004°07'0 0.0
2014-Sep-10 17:25N 51°58' E 004°07'0 0.0
2014-Sep-10 15:22N 51°58' E 004°07'0 0.0
2014-Sep-10 14:31N 51°58' E 004°07'0 0.0
2014-Sep-10 13:31N 51°58' E 004°07'0 0.0
2014-Sep-10 12:31N 51°58' E 004°07'0 0.0
2014-Sep-10 11:31N 51°58' E 004°07'0 0.0
2014-Sep-10 10:28N 51°58' E 004°07'0 0.0
2014-Sep-10 09:28N 51°58' E 004°07'0 0.0
2014-Sep-10 08:31N 51°58' E 004°07'0 0.0
2014-Sep-10 07:31N 51°58' E 004°07'0 0.0
2014-Sep-10 06:32N 51°58' E 004°07'0 0.0
2014-Sep-10 05:31N 51°58' E 004°07'0 0.0
2014-Sep-10 04:28N 51°58' E 004°07'0 0.0
2014-Sep-10 03:31N 51°58' E 004°07'0 0.0
2014-Sep-10 02:31N 51°58' E 004°07'0 0.0
2014-Sep-10 01:28N 51°58' E 004°07'0 0.0
2014-Sep-10 00:25N 51°58' E 004°07'0 0.0
2014-Sep-09 23:31N 51°58' E 004°07'0 0.0
2014-Sep-09 22:31N 51°58' E 004°07'0 0.0
2014-Sep-09 21:31N 51°58' E 004°07'0 0.0
2014-Sep-09 20:31N 51°58' E 004°07'0 0.0
2014-Sep-09 19:28N 51°58' E 004°07'0 0.0
2014-Sep-09 18:28N 51°58' E 004°07'0 0.0
2014-Sep-09 17:31N 51°58' E 004°07'0 0.0
2014-Sep-09 16:31N 51°58' E 004°07'0 0.0
2014-Sep-09 15:32N 51°58' E 004°07'0 0.0
2014-Sep-09 14:31N 51°58' E 004°07'0 0.0
2014-Sep-09 13:22N 51°58' E 004°07'0 0.0
2014-Sep-09 12:31N 51°58' E 004°07'0 0.2
2014-Sep-09 11:34N 51°58' E 004°08'0 0.2
2014-Sep-09 10:33N 51°57' E 004°08'0 0.0
2014-Sep-09 09:27N 51°57' E 004°08'0 0.0
2014-Sep-09 08:33N 51°57' E 004°08'0 0.0
2014-Sep-09 07:33N 51°57' E 004°08'0 0.0
2014-Sep-09 06:33N 51°57' E 004°08'0 0.0
2014-Sep-09 05:33N 51°57' E 004°08'0 0.0
2014-Sep-09 04:33N 51°57' E 004°08'0 0.0
2014-Sep-09 03:33N 51°57' E 004°08'0 0.0
2014-Sep-09 02:30N 51°57' E 004°08'0 0.0
2014-Sep-09 01:27N 51°57' E 004°08'0 0.0
2014-Sep-09 00:27N 51°57' E 004°08'0 0.0
2014-Sep-08 23:33N 51°57' E 004°08'0 0.0
2014-Sep-08 22:33N 51°57' E 004°08'0 0.0
2014-Sep-08 21:30N 51°57' E 004°08'0 0.0
2014-Sep-08 20:33N 51°57' E 004°08'0 0.0
2014-Sep-08 19:30N 51°57' E 004°08'0 0.0
2014-Sep-08 18:33N 51°57' E 004°08'0 0.0
2014-Sep-08 17:33N 51°57' E 004°08'0 0.0
2014-Sep-08 16:30N 51°57' E 004°08'1 0.7
2014-Sep-08 15:33N 51°58' E 004°07'6 5.7
2014-Sep-08 14:33N 51°55' E 004°15'2 1.9
2014-Sep-08 13:32N 51°53' E 004°17'0 0.0
2014-Sep-08 12:32N 51°53' E 004°17'0 0.0
2014-Sep-08 11:32N 51°53' E 004°17'0 0.0
2014-Sep-08 10:32N 51°53' E 004°17'0 0.0
2014-Sep-08 09:32N 51°53' E 004°17'0 0.0
2014-Sep-08 08:32N 51°53' E 004°17'0 0.0
2014-Sep-08 07:32N 51°53' E 004°17'0 0.0
2014-Sep-08 06:32N 51°53' E 004°17'0 0.0
2014-Sep-08 05:32N 51°53' E 004°17'0 0.0
2014-Sep-08 04:32N 51°53' E 004°17'0 0.0
2014-Sep-08 03:32N 51°53' E 004°17'0 0.0
2014-Sep-08 02:32N 51°53' E 004°17'0 0.0
2014-Sep-08 01:32N 51°53' E 004°17'0 0.0
2014-Sep-08 00:32N 51°53' E 004°17'0 0.0
2014-Sep-07 23:32N 51°53' E 004°17'  
Track history (hours):
 
Tides and Currents Weather Stations Pressure Air Temp Water Temp Dewpoint Dewpoint Depression Visibility Wind Speed Wind Dir Waves Ship Positions

Yvonne K.

Last reported at 2014-Sep-17 22:06 UTC. Time now 2014-Sep-19 17:54 UTC.
Position N 35°59' W 005°15'.

Length 90 m; draft 5.2 m.

Type: Cargo ship. MMSI: 244948000.

Date/timePositionNaut miles runAvg speedWind from/ knotsBaromVisibWave heightAir tempDewpointWater temp
2014-Sep-17 22:06N 35°59' W 005°15'911.5
2014-Sep-17 21:18N 35°57' W 005°26'  
2014-Sep-13 09:33N 47°27' W 006°56'9 9.3
2014-Sep-13 08:33N 47°35' W 006°49'9 9.4
2014-Sep-13 07:33N 47°43' W 006°42'8 8.2
2014-Sep-13 06:33N 47°50' W 006°37'15 7.6
2014-Sep-13 04:33N 48°04' W 006°26'15 7.6
2014-Sep-13 02:33N 48°17' W 006°15'296 9.0
2014-Sep-11 17:33N 50°37' E 000°26'1110.9
2014-Sep-11 16:33N 50°42' E 000°42'1010.0
2014-Sep-11 15:32N 50°48' E 000°55'26 7.7
2014-Sep-11 12:13N 51°04' E 001°27'6 9.1
2014-Sep-11 11:33N 51°08' E 001°34'1110.7
2014-Sep-11 10:33N 51°15' E 001°47'1212.2
2014-Sep-11 09:33N 51°25' E 001°58'1211.9
2014-Sep-11 08:33N 51°34' E 002°11'52 8.4
2014-Sep-11 02:23N 52°02' E 003°21'17 8.5
2014-Sep-11 00:25N 52°03' E 003°48'8 9.3
2014-Sep-10 23:33N 52°01' E 004°00'5 4.9
2014-Sep-10 22:28N 51°58' E 004°07'0 0.0
2014-Sep-10 21:31N 51°58' E 004°07'0 0.0
2014-Sep-10 20:31N 51°58' E 004°07'0 0.0
2014-Sep-10 19:31N 51°58' E 004°07'0 0.0
2014-Sep-10 18:22N 51°58' E 004°07'0 0.0
2014-Sep-10 17:25N 51°58' E 004°07'0 0.0
2014-Sep-10 15:22N 51°58' E 004°07'0 0.0
2014-Sep-10 14:31N 51°58' E 004°07'0 0.0
2014-Sep-10 13:31N 51°58' E 004°07'0 0.0
2014-Sep-10 12:31N 51°58' E 004°07'0 0.0
2014-Sep-10 11:31N 51°58' E 004°07'0 0.0
2014-Sep-10 10:28N 51°58' E 004°07'0 0.0
2014-Sep-10 09:28N 51°58' E 004°07'0 0.0
2014-Sep-10 08:31N 51°58' E 004°07'0 0.0
2014-Sep-10 07:31N 51°58' E 004°07'0 0.0
2014-Sep-10 06:32N 51°58' E 004°07'0 0.0
2014-Sep-10 05:31N 51°58' E 004°07'0 0.0
2014-Sep-10 04:28N 51°58' E 004°07'0 0.0
2014-Sep-10 03:31N 51°58' E 004°07'0 0.0
2014-Sep-10 02:31N 51°58' E 004°07'0 0.0
2014-Sep-10 01:28N 51°58' E 004°07'0 0.0
2014-Sep-10 00:25N 51°58' E 004°07'0 0.0
2014-Sep-09 23:31N 51°58' E 004°07'0 0.0
2014-Sep-09 22:31N 51°58' E 004°07'0 0.0
2014-Sep-09 21:31N 51°58' E 004°07'0 0.0
2014-Sep-09 20:31N 51°58' E 004°07'0 0.0
2014-Sep-09 19:28N 51°58' E 004°07'0 0.0
2014-Sep-09 18:28N 51°58' E 004°07'0 0.0
2014-Sep-09 17:31N 51°58' E 004°07'0 0.0
2014-Sep-09 16:31N 51°58' E 004°07'0 0.0
2014-Sep-09 15:32N 51°58' E 004°07'0 0.0
2014-Sep-09 14:31N 51°58' E 004°07'0 0.0
2014-Sep-09 13:22N 51°58' E 004°07'0 0.0
2014-Sep-09 12:31N 51°58' E 004°07'0 0.2
2014-Sep-09 11:34N 51°58' E 004°08'0 0.2
2014-Sep-09 10:33N 51°57' E 004°08'0 0.0
2014-Sep-09 09:27N 51°57' E 004°08'0 0.0
2014-Sep-09 08:33N 51°57' E 004°08'0 0.0
2014-Sep-09 07:33N 51°57' E 004°08'0 0.0
2014-Sep-09 06:33N 51°57' E 004°08'0 0.0
2014-Sep-09 05:33N 51°57' E 004°08'0 0.0
2014-Sep-09 04:33N 51°57' E 004°08'0 0.0
2014-Sep-09 03:33N 51°57' E 004°08'0 0.0
2014-Sep-09 02:30N 51°57' E 004°08'0 0.0
2014-Sep-09 01:27N 51°57' E 004°08'0 0.0
2014-Sep-09 00:27N 51°57' E 004°08'0 0.0
2014-Sep-08 23:33N 51°57' E 004°08'0 0.0
2014-Sep-08 22:33N 51°57' E 004°08'0 0.0
2014-Sep-08 21:30N 51°57' E 004°08'0 0.0
2014-Sep-08 20:33N 51°57' E 004°08'0 0.0
2014-Sep-08 19:30N 51°57' E 004°08'0 0.0
2014-Sep-08 18:33N 51°57' E 004°08'0 0.0
2014-Sep-08 17:33N 51°57' E 004°08'0 0.0
2014-Sep-08 16:30N 51°57' E 004°08'1 0.7
2014-Sep-08 15:33N 51°58' E 004°07'6 5.7
2014-Sep-08 14:33N 51°55' E 004°15'2 1.9
2014-Sep-08 13:32N 51°53' E 004°17'0 0.0
2014-Sep-08 12:32N 51°53' E 004°17'0 0.0
2014-Sep-08 11:32N 51°53' E 004°17'0 0.0
2014-Sep-08 10:32N 51°53' E 004°17'0 0.0
2014-Sep-08 09:32N 51°53' E 004°17'0 0.0
2014-Sep-08 08:32N 51°53' E 004°17'0 0.0
2014-Sep-08 07:32N 51°53' E 004°17'0 0.0
2014-Sep-08 06:32N 51°53' E 004°17'0 0.0
2014-Sep-08 05:32N 51°53' E 004°17'0 0.0
2014-Sep-08 04:32N 51°53' E 004°17'0 0.0
2014-Sep-08 03:32N 51°53' E 004°17'0 0.0
2014-Sep-08 02:32N 51°53' E 004°17'0 0.0
2014-Sep-08 01:32N 51°53' E 004°17'0 0.0
2014-Sep-08 00:32N 51°53' E 004°17'0 0.0
2014-Sep-07 23:32N 51°53' E 004°17'  

Dump ship's entire track history